Time;durP1;ratioP1;P1;durP2;ratioP2;P2;SDS_P1;SDS_P2;PMS_P1;PMS_P2;Temp;Humidity;BMP_temperature;BMP_pressure;BME280_temperature;BME280_humidity;BME280_pressure;Samples;Min_cycle;Max_cycle;Signal;HPM_P1;HPM_P2
2022/03/07 00:00:50;;;;;;;10.85;5.68;;;;;;;-146.64;100.00;47180.00;5050193;28;20152;-76
2022/03/07 00:03:16;;;;;;;11.05;6.10;;;;;;;-146.64;100.00;47897.81;5054632;28;20124;-77
2022/03/07 00:05:41;;;;;;;11.48;6.20;;;;;;;-146.64;100.00;48215.75;5033417;28;20039;-75
2022/03/07 00:08:07;;;;;;;11.30;5.10;;;;;;;-146.64;100.00;48554.22;5030594;28;20035;-75
2022/03/07 00:10:32;;;;;;;8.25;5.40;;;;;;;-146.64;100.00;49143.00;5065714;28;20070;-77
2022/03/07 00:12:57;;;;;;;12.57;6.18;;;;;;;-146.64;100.00;52919.97;5050470;28;20086;-76
2022/03/07 00:15:23;;;;;;;16.33;7.63;;;;;;;-146.64;100.00;53478.59;5058008;28;20021;-76
2022/03/07 00:17:48;;;;;;;10.98;5.85;;;;;;;-146.64;100.00;52533.88;5038907;28;20369;-77
2022/03/07 00:20:14;;;;;;;11.57;5.68;;;;;;;-146.64;100.00;49976.09;5054150;28;20036;-76
2022/03/07 00:22:39;;;;;;;7.78;5.50;;;;;;;-146.64;100.00;49904.28;5040703;28;20075;-78
2022/03/07 00:25:05;;;;;;;7.18;5.55;;;;;;;-146.64;100.00;50634.88;5061541;28;20028;-76
2022/03/07 00:27:30;;;;;;;9.50;5.30;;;;;;;-146.64;100.00;49754.47;5033741;28;20029;-77
2022/03/07 00:29:56;;;;;;;14.05;6.07;;;;;;;-146.64;100.00;48529.59;5032621;28;20040;-77
2022/03/07 00:32:21;;;;;;;8.50;5.28;;;;;;;-146.64;100.00;49325.63;5058883;28;20103;-76
2022/03/07 00:34:48;;;;;;;12.35;5.90;;;;;;;-146.64;100.00;48476.25;5028770;28;20383;-76
2022/03/07 00:37:14;;;;;;;16.45;6.35;;;;;;;-146.64;100.00;47499.94;5050711;28;20384;-76
2022/03/07 00:39:39;;;;;;;8.93;6.10;;;;;;;-146.64;100.00;48804.50;5051063;28;20051;-76
2022/03/07 00:42:06;;;;;;;12.77;5.95;;;;;;;-146.64;100.00;49337.94;5057008;28;20029;-77
2022/03/07 00:44:31;;;;;;;7.95;5.50;;;;;;;-146.64;100.00;48463.97;5051304;28;20035;-76
2022/03/07 00:46:58;;;;;;;8.95;5.28;;;;;;;-146.64;100.00;49108.13;5033543;28;20037;-76
2022/03/07 00:49:23;;;;;;;11.55;6.07;;;;;;;-146.64;100.00;48623.97;5051156;28;20387;-76
2022/03/07 00:51:50;;;;;;;7.88;5.93;;;;;;;-146.64;100.00;48166.53;5030707;28;20119;-77
2022/03/07 00:54:16;;;;;;;11.25;6.57;;;;;;;-146.64;100.00;49040.44;5058068;28;20064;-76
2022/03/07 00:56:41;;;;;;;8.13;5.72;;;;;;;-146.64;100.00;48841.44;5049623;28;20029;-77
2022/03/07 00:59:06;;;;;;;14.73;6.20;;;;;;;-146.64;100.00;47376.88;5051773;28;20138;-76
2022/03/07 01:01:32;;;;;;;13.05;6.30;;;;;;;-146.64;100.00;46972.91;5055847;28;20431;-77
2022/03/07 01:03:57;;;;;;;16.25;6.55;;;;;;;-146.64;100.00;46774.00;5055231;28;20032;-76
2022/03/07 01:06:22;;;;;;;8.15;6.15;;;;;;;-146.64;100.00;47333.81;5058413;28;20117;-76
2022/03/07 01:08:48;;;;;;;7.93;5.65;;;;;;;-146.64;100.00;46671.47;5040660;28;20055;-77
2022/03/07 01:11:13;;;;;;;12.38;5.88;;;;;;;-146.64;100.00;46171.22;5031371;28;20021;-77
2022/03/07 01:13:38;;;;;;;10.85;6.07;;;;;;;-146.64;100.00;45843.19;5057005;28;20029;-77
2022/03/07 01:16:04;;;;;;;8.75;5.45;;;;;;;-146.64;100.00;45232.34;5046498;28;20482;-75
2022/03/07 01:18:29;;;;;;;8.45;5.60;;;;;;;-146.64;100.00;45109.38;5056019;28;20060;-75
2022/03/07 01:20:55;;;;;;;12.77;6.43;;;;;;;-146.64;100.00;44314.19;5036219;28;20123;-76
2022/03/07 01:23:20;;;;;;;9.88;5.28;;;;;;;-146.64;100.00;44803.97;5033519;28;20059;-76
2022/03/07 01:25:45;;;;;;;13.93;5.47;;;;;;;-146.64;100.00;43666.69;5049505;28;20402;-77
2022/03/07 01:28:11;;;;;;;7.55;5.60;;;;;;;-146.64;100.00;43533.53;5047236;28;20395;-76
2022/03/07 01:30:36;;;;;;;10.50;6.20;;;;;;;-146.64;100.00;43951.50;5032503;28;20395;-77
2022/03/07 01:33:01;;;;;;;12.75;5.45;;;;;;;-146.64;100.00;44072.41;5053042;28;20040;-77
2022/03/07 01:35:27;;;;;;;8.82;5.22;;;;;;;-146.64;100.00;43734.31;5041090;28;20119;-77
2022/03/07 01:37:52;;;;;;;10.55;5.97;;;;;;;-146.64;100.00;43187.28;5049126;28;20032;-77
2022/03/07 01:40:18;;;;;;;7.80;5.00;;;;;;;-146.64;100.00;42728.44;5029942;28;20480;-77
2022/03/07 01:42:43;;;;;;;10.85;5.50;;;;;;;-146.64;100.00;42646.50;5049461;28;20033;-77
2022/03/07 01:45:12;;;;;;;12.27;5.20;;;;;;;-146.64;100.00;42703.84;5055905;28;20024;-77
2022/03/07 01:47:38;;;;;;;7.72;5.35;;;;;;;-146.64;100.00;43160.66;5049419;28;20415;-76
2022/03/07 01:50:06;;;;;;;7.82;5.40;;;;;;;-146.64;100.00;43875.69;5031325;28;20036;-76
2022/03/07 01:52:37;;;;;;;7.43;5.28;;;;;;;-146.64;100.00;43703.59;5040798;28;20025;-77
2022/03/07 01:55:03;;;;;;;10.77;5.88;;;;;;;-146.64;100.00;43527.38;5057563;28;20032;-76
2022/03/07 01:57:30;;;;;;;7.97;5.43;;;;;;;-146.64;100.00;43172.97;5028194;28;20021;-77
2022/03/07 01:59:55;;;;;;;8.50;5.30;;;;;;;-146.64;100.00;43676.94;5032511;28;20041;-77
2022/03/07 02:02:21;;;;;;;10.80;5.43;;;;;;;-146.64;100.00;43281.53;5030536;28;20029;-76
2022/03/07 02:04:46;;;;;;;12.05;5.70;;;;;;;-146.64;100.00;43498.69;5040422;28;20194;-76
2022/03/07 02:07:12;;;;;;;10.45;6.03;;;;;;;-146.64;100.00;43869.53;5049184;28;20067;-77
2022/03/07 02:09:37;;;;;;;8.73;5.60;;;;;;;-146.64;100.00;43818.31;5031783;28;20396;-77
2022/03/07 02:12:03;;;;;;;9.70;5.60;;;;;;;-146.64;100.00;44338.78;5025686;28;20036;-77
2022/03/07 02:14:28;;;;;;;8.32;5.47;;;;;;;-146.64;100.00;45023.28;5036232;28;20518;-76
2022/03/07 02:16:53;;;;;;;49.63;6.82;;;;;;;-146.64;100.00;46650.97;5031627;28;20017;-76
2022/03/07 02:19:19;;;;;;;8.50;5.13;;;;;;;-146.64;100.00;45781.69;5052747;28;20079;-76
2022/03/07 02:21:49;;;;;;;8.32;5.55;;;;;;;-146.64;100.00;45035.59;5048029;28;20041;-76
2022/03/07 02:24:18;;;;;;;6.95;5.03;;;;;;;-146.64;100.00;45275.38;5051089;28;20456;-77
2022/03/07 02:26:57;;;;;;;15.05;6.80;;;;;;;-146.64;100.00;46331.13;5044739;28;20028;-76
2022/03/07 02:29:23;;;;;;;10.98;5.53;;;;;;;-146.64;100.00;46769.91;5049133;28;20143;-76
2022/03/07 02:31:48;;;;;;;9.15;5.43;;;;;;;-146.64;100.00;47089.78;5052563;28;20028;-77
2022/03/07 02:34:13;;;;;;;8.88;5.45;;;;;;;-146.64;100.00;49658.03;5060323;28;20024;-76
2022/03/07 02:36:39;;;;;;;9.65;5.65;;;;;;;-146.64;100.00;52638.63;5057489;28;20439;-77
2022/03/07 02:39:05;;;;;;;11.13;5.53;;;;;;;-146.64;100.00;55305.00;5047151;28;20128;-76
2022/03/07 02:41:30;;;;;;;9.05;5.70;;;;;;;-146.64;100.00;55568.03;5052896;28;20158;-76
2022/03/07 02:43:56;;;;;;;10.18;5.85;;;;;;;-146.64;100.00;57409.78;5064481;28;20247;-76
2022/03/07 02:46:21;;;;;;;8.93;5.68;;;;;;;-146.64;100.00;60569.03;5051428;28;20491;-76
2022/03/07 02:48:46;;;;;;;9.05;6.10;;;;;;;-146.64;100.00;60305.66;5061847;28;20037;-76
2022/03/07 02:51:12;;;;;;;12.98;5.20;;;;;;;-146.64;100.00;62940.13;5044658;28;20044;-76
2022/03/07 02:53:37;;;;;;;9.13;6.00;;;;;;;-146.64;100.00;65576.34;5057436;28;20066;-76
2022/03/07 02:56:03;;;;;;;10.38;6.13;;;;;;;-146.64;100.00;66103.78;5053489;28;20091;-76
2022/03/07 02:58:28;;;;;;;9.48;5.95;;;;;;;-146.64;100.00;67686.56;5053592;28;20062;-76
2022/03/07 03:00:53;;;;;;;8.90;5.65;;;;;;;-146.64;100.00;68478.19;5034207;28;20492;-76
2022/03/07 03:03:18;;;;;;;7.82;5.53;;;;;;;-146.64;100.00;69533.94;5054840;28;20108;-76
2022/03/07 03:05:44;;;;;;;13.00;6.63;;;;;;;-146.64;100.00;70325.94;5064698;28;20426;-76
2022/03/07 03:08:09;;;;;;;10.95;6.35;;;;;;;-146.64;100.00;69533.94;5053082;28;20020;-76
2022/03/07 03:10:35;;;;;;;7.55;6.47;;;;;;;-146.64;100.00;68214.31;5057136;28;20399;-76
2022/03/07 03:13:00;;;;;;;8.20;6.10;;;;;;;-146.64;100.00;70854.00;5050618;28;20025;-76
2022/03/07 03:15:26;;;;;;;10.80;5.72;;;;;;;-146.64;100.00;70061.91;5051526;28;20036;-76
2022/03/07 03:17:51;;;;;;;9.35;6.00;;;;;;;-146.64;100.00;71382.16;5048574;28;20123;-76
2022/03/07 03:20:17;;;;;;;9.15;6.38;;;;;;;-146.64;100.00;71646.25;5029386;28;20030;-76
2022/03/07 03:22:43;;;;;;;11.20;6.45;;;;;;;-146.64;100.00;71910.38;5049879;28;20033;-76
2022/03/07 03:25:10;;;;;;;10.55;5.93;;;;;;;-146.64;100.00;71646.25;5051084;28;20028;-76
2022/03/07 03:27:36;;;;;;;7.10;5.95;;;;;;;-146.64;100.00;73759.69;5049460;28;20029;-77
2022/03/07 03:30:04;;;;;;;12.40;6.10;;;;;;;-146.64;100.00;74816.84;5030108;28;20024;-76
2022/03/07 03:32:30;;;;;;;11.77;6.35;;;;;;;-146.64;100.00;73231.22;5045964;28;20024;-76
2022/03/07 03:34:56;;;;;;;11.27;6.30;;;;;;;-146.64;100.00;71910.38;5037555;28;20047;-76
2022/03/07 03:37:21;;;;;;;9.95;6.28;;;;;;;-146.64;100.00;74023.97;5039655;28;20111;-76
2022/03/07 03:39:47;;;;;;;11.05;6.32;;;;;;;-146.64;100.00;75874.25;5036998;28;20043;-76
2022/03/07 03:42:12;;;;;;;12.30;6.22;;;;;;;-146.64;100.00;77196.41;5030542;28;20575;-76
2022/03/07 03:44:37;;;;;;;13.85;7.28;;;;;;;-146.64;100.00;76138.66;5056219;28;20411;-76
2022/03/07 03:47:03;;;;;;;10.32;6.28;;;;;;;-146.64;100.00;77460.91;5049674;28;20387;-76
2022/03/07 03:49:30;;;;;;;9.65;6.78;;;;;;;-146.64;100.00;81165.53;5055698;28;20025;-76
2022/03/07 03:51:55;;;;;;;14.85;7.18;;;;;;;-146.64;100.00;81430.28;5065127;28;20028;-76
2022/03/07 03:54:21;;;;;;;16.33;6.95;;;;;;;-146.64;100.00;80636.09;5059233;28;20033;-76
2022/03/07 03:56:46;;;;;;;13.77;7.22;;;;;;;-146.64;100.00;79577.41;5032195;28;20055;-76
2022/03/07 03:59:11;;;;;;;14.82;7.75;;;;;;;-146.64;100.00;78783.59;5059752;28;20430;-76
2022/03/07 04:01:37;;;;;;;12.35;7.40;;;;;;;-146.64;100.00;80106.72;5038892;28;20081;-76
2022/03/07 04:04:02;;;;;;;12.88;6.78;;;;;;;-146.64;100.00;81165.53;5053741;28;20040;-76
2022/03/07 04:06:27;;;;;;;11.38;6.47;;;;;;;-146.64;100.00;80900.81;5049449;28;20024;-76
2022/03/07 04:08:58;;;;;;;12.30;7.68;;;;;;;-146.64;100.00;80900.81;5052761;28;20025;-76
2022/03/07 04:11:24;;;;;;;15.48;7.03;;;;;;;-146.64;100.00;81695.03;5065195;28;20068;-76
2022/03/07 04:13:49;;;;;;;10.70;6.78;;;;;;;-146.64;100.00;81695.03;5043643;28;20031;-77
2022/03/07 04:16:15;;;;;;;12.27;6.80;;;;;;;-146.64;100.00;81959.81;5049203;28;20506;-76
2022/03/07 04:18:40;;;;;;;14.68;7.10;;;;;;;-146.64;100.00;82224.63;5049432;28;20033;-76
2022/03/07 04:21:05;;;;;;;12.40;7.40;;;;;;;-146.64;100.00;83548.88;5063950;28;20043;-76
2022/03/07 04:23:31;;;;;;;14.95;7.85;;;;;;;-146.64;100.00;83548.88;5041926;28;20395;-76
2022/03/07 04:25:56;;;;;;;18.38;7.22;;;;;;;-146.64;100.00;83813.78;5062586;28;20487;-76
2022/03/07 04:28:21;;;;;;;13.55;7.18;;;;;;;-146.64;100.00;83813.78;5024616;28;20112;-76
2022/03/07 04:30:47;;;;;;;16.45;8.95;;;;;;;-146.64;100.00;82754.28;5055304;28;20047;-76
2022/03/07 04:33:12;;;;;;;12.48;7.75;;;;;;;-146.64;100.00;83284.00;5050245;28;20031;-76
2022/03/07 04:35:38;;;;;;;13.18;8.13;;;;;;;-146.64;100.00;84608.59;5028228;28;20085;-76
2022/03/07 04:38:03;;;;;;;11.10;7.82;;;;;;;-146.64;100.00;83548.88;5019806;28;20043;-77
2022/03/07 04:40:28;;;;;;;13.23;7.95;;;;;;;-146.64;100.00;83284.00;5032847;28;20071;-76
2022/03/07 04:42:56;;;;;;;10.00;6.65;;;;;;;-146.64;100.00;82224.63;5062935;28;20031;-76
2022/03/07 04:45:22;;;;;;;10.23;7.15;;;;;;;-146.64;100.00;83019.13;5048540;28;20035;-76
2022/03/07 04:47:47;;;;;;;12.77;8.27;;;;;;;-146.64;100.00;84343.66;5029857;28;20024;-76
2022/03/07 04:50:13;;;;;;;14.32;8.25;;;;;;;-146.64;100.00;85403.56;5052746;28;20123;-75
2022/03/07 04:52:39;;;;;;;19.00;8.18;;;;;;;-146.64;100.00;86463.78;5051222;28;20024;-76
2022/03/07 04:55:04;;;;;;;13.50;8.27;;;;;;;-146.64;100.00;86198.72;5047754;28;20025;-75
2022/03/07 04:57:30;;;;;;;11.15;7.75;;;;;;;-146.64;100.00;86463.78;5048614;28;20065;-75
2022/03/07 04:59:55;;;;;;;11.48;7.25;;;;;;;-146.64;100.00;87789.44;5047564;28;20456;-76
2022/03/07 05:02:20;;;;;;;18.58;7.43;;;;;;;-146.64;100.00;86994.00;5037800;28;20094;-76
2022/03/07 05:04:46;;;;;;;9.73;7.40;;;;;;;-146.64;100.00;85403.56;5030069;28;20075;-76
2022/03/07 05:07:11;;;;;;;13.63;7.65;;;;;;;-146.64;100.00;85403.56;5049832;28;20105;-76
2022/03/07 05:09:36;;;;;;;10.25;7.38;;;;;;;-146.64;100.00;86198.72;5027639;28;20033;-75
2022/03/07 05:12:02;;;;;;;12.13;7.65;;;;;;;-146.64;100.00;86463.78;5042718;28;20021;-75
2022/03/07 05:14:27;;;;;;;12.90;8.38;;;;;;;-146.64;100.00;88054.63;5031604;28;20017;-76
2022/03/07 05:16:53;;;;;;;13.43;8.48;;;;;;;-146.64;100.00;88054.63;5055545;28;20033;-76
2022/03/07 05:19:19;;;;;;;11.48;8.73;;;;;;;-146.64;100.00;88319.81;5048882;28;20032;-74
2022/03/07 05:21:44;;;;;;;15.25;8.13;;;;;;;-146.64;100.00;87789.44;5049592;28;20036;-75
2022/03/07 05:24:10;;;;;;;10.30;7.68;;;;;;;-146.64;100.00;88319.81;5034336;28;20497;-75
2022/03/07 05:26:36;;;;;;;15.82;8.27;;;;;;;-146.64;100.00;87789.44;5023605;28;20131;-75
2022/03/07 05:29:03;;;;;;;13.88;8.52;;;;;;;-146.64;100.00;88585.03;5033438;28;20051;-76
2022/03/07 05:31:28;;;;;;;14.35;8.35;;;;;;;-146.64;100.00;88054.63;5029346;28;20029;-76
2022/03/07 05:33:54;;;;;;;15.18;8.55;;;;;;;-146.64;100.00;88319.81;5057501;28;20084;-75
2022/03/07 05:36:19;;;;;;;14.73;8.73;;;;;;;-146.64;100.00;89380.81;5055078;28;20036;-75
2022/03/07 05:38:44;;;;;;;22.25;8.80;;;;;;;-146.64;100.00;89646.09;5028711;28;20042;-75
2022/03/07 05:41:10;;;;;;;12.80;8.73;;;;;;;-146.64;100.00;88054.63;5050313;28;20080;-75
2022/03/07 05:43:35;;;;;;;13.68;9.55;;;;;;;-146.64;100.00;88850.28;5048177;28;20357;-75
2022/03/07 05:46:00;;;;;;;20.92;10.82;;;;;;;-146.64;100.00;88585.03;5018784;28;20028;-75
2022/03/07 05:48:26;;;;;;;19.98;10.98;;;;;;;-146.64;100.00;89911.41;5038788;28;20056;-75
2022/03/07 05:50:51;;;;;;;14.55;9.45;;;;;;;-146.64;100.00;90176.72;5058079;28;20648;-75
2022/03/07 05:53:21;;;;;;;14.32;10.13;;;;;;;-146.64;100.00;90707.41;5041761;28;20081;-75
2022/03/07 05:55:50;;;;;;;18.88;9.15;;;;;;;-146.64;100.00;91238.19;5050020;28;20565;-74
2022/03/07 05:58:16;;;;;;;12.70;8.63;;;;;;;-146.64;100.00;91238.19;5065995;28;20024;-75
2022/03/07 06:00:44;;;;;;;14.75;9.60;;;;;;;-146.64;100.00;93361.97;5048404;28;20053;-75
2022/03/07 06:03:10;;;;;;;19.33;9.52;;;;;;;-146.64;100.00;94424.25;5057283;28;20029;-75
2022/03/07 06:05:35;;;;;;;17.38;9.75;;;;;;;-146.64;100.00;93893.06;5048908;28;20029;-75
2022/03/07 06:08:02;;;;;;;17.42;9.43;;;;;;;-146.64;100.00;93096.44;5054500;28;20108;-75
2022/03/07 06:10:28;;;;;;;14.10;9.25;;;;;;;-146.64;100.00;92299.94;5048451;28;20430;-75
2022/03/07 06:12:53;;;;;;;13.05;9.18;;;;;;;-146.64;100.00;91238.19;5037356;28;20021;-75
2022/03/07 06:15:20;;;;;;;20.38;10.77;;;;;;;-146.64;100.00;90707.41;5055021;28;20067;-75
2022/03/07 06:17:51;;;;;;;23.90;10.88;;;;;;;-146.64;100.00;89911.41;5047308;28;20037;-75
2022/03/07 06:20:16;;;;;;;18.35;9.48;;;;;;;-146.64;100.00;89646.09;5052572;28;20043;-75
2022/03/07 06:22:41;;;;;;;22.35;10.43;;;;;;;-146.64;100.00;88585.03;5035872;28;20040;-75
2022/03/07 06:25:07;;;;;;;14.52;9.80;;;;;;;-146.64;100.00;87524.28;5054446;28;20029;-75
2022/03/07 06:27:32;;;;;;;16.23;9.90;;;;;;;-146.64;100.00;86463.78;5049836;28;20080;-75
2022/03/07 06:29:58;;;;;;;24.02;10.73;;;;;;;-146.64;100.00;86463.78;5050783;28;20024;-75
2022/03/07 06:32:24;;;;;;;15.10;10.20;;;;;;;-146.64;100.00;86463.78;5057503;28;20028;-75
2022/03/07 06:34:50;;;;;;;14.35;10.07;;;;;;;-146.64;100.00;84873.56;5049577;28;20021;-75
2022/03/07 06:37:15;;;;;;;17.55;10.10;;;;;;;-146.64;100.00;85138.56;5047521;28;20036;-75
2022/03/07 06:39:40;;;;;;;22.95;11.32;;;;;;;-146.64;100.00;86728.88;5059393;28;20037;-75
2022/03/07 06:42:06;;;;;;;17.23;10.27;;;;;;;-146.64;100.00;87524.28;5034660;28;20073;-75
2022/03/07 06:44:32;;;;;;;17.40;11.15;;;;;;;-146.64;100.00;88054.63;5019361;28;20120;-75
2022/03/07 06:46:59;;;;;;;18.80;10.85;;;;;;;-146.64;100.00;88054.63;5034586;28;20120;-74
2022/03/07 06:49:24;;;;;;;21.27;11.32;;;;;;;-146.64;100.00;87789.44;5048790;28;20059;-74
2022/03/07 06:51:50;;;;;;;17.35;10.65;;;;;;;-146.64;100.00;86994.00;5055250;28;20144;-75
2022/03/07 06:54:15;;;;;;;15.57;10.50;;;;;;;-146.64;100.00;86463.78;5063556;28;20032;-75
2022/03/07 06:56:40;;;;;;;19.63;10.77;;;;;;;-146.64;100.00;86728.88;5055535;28;20033;-75
2022/03/07 06:59:06;;;;;;;19.40;10.45;;;;;;;-146.64;100.00;86198.72;5050431;28;20046;-75
2022/03/07 07:01:31;;;;;;;18.85;10.65;;;;;;;-146.64;100.00;86463.78;5043173;28;20157;-75
2022/03/07 07:03:56;;;;;;;24.55;11.70;;;;;;;-146.64;100.00;85403.56;5059508;28;20051;-75
2022/03/07 07:06:21;;;;;;;25.58;11.82;;;;;;;-146.64;100.00;84343.66;5063831;28;20139;-74
2022/03/07 07:08:47;;;;;;;17.05;11.48;;;;;;;-146.64;100.00;81959.81;5042091;28;20543;-75
2022/03/07 07:11:12;;;;;;;18.40;10.77;;;;;;;-146.64;100.00;79842.06;5057813;28;20039;-75
2022/03/07 07:13:37;;;;;;;25.58;11.52;;;;;;;-146.64;100.00;78783.59;5050541;28;20025;-75
2022/03/07 07:16:03;;;;;;;18.27;11.90;;;;;;;-146.64;100.00;77460.91;5023758;28;20099;-75
2022/03/07 07:18:28;;;;;;;23.30;12.43;;;;;;;-146.64;100.00;74816.84;5052021;28;20029;-75
2022/03/07 07:20:54;;;;;;;19.90;12.75;;;;;;;-146.64;100.00;72702.84;5053306;28;20036;-74
2022/03/07 07:23:20;;;;;;;21.25;11.65;;;;;;;-146.64;100.00;71118.06;5061417;28;20024;-75
2022/03/07 07:25:46;;;;;;;19.30;12.57;;;;;;;-146.64;100.00;70325.94;5034120;28;20419;-75
2022/03/07 07:28:12;;;;;;;18.27;11.70;;;;;;;-146.64;100.00;67950.44;5058066;28;20036;-75
2022/03/07 07:30:37;;;;;;;24.13;12.87;;;;;;;-146.64;100.00;66631.31;5023859;28;20045;-76
2022/03/07 07:33:03;;;;;;;24.20;11.48;;;;;;;-146.64;100.00;64521.66;5053674;28;20353;-74
2022/03/07 07:35:28;;;;;;;19.65;12.15;;;;;;;-146.64;100.00;61886.13;5051929;28;20360;-74
2022/03/07 07:37:54;;;;;;;17.83;11.95;;;;;;;-146.64;100.00;60042.31;5053933;28;20035;-74
2022/03/07 07:40:20;;;;;;;20.63;12.50;;;;;;;-146.64;100.00;56275.03;5055372;28;20467;-75
2022/03/07 07:42:45;;;;;;;19.35;12.13;;;;;;;-146.64;100.00;52819.34;5029738;28;20037;-76
2022/03/07 07:45:12;;;;;;;21.58;11.93;;;;;;;-146.64;100.00;48582.94;5053720;28;20024;-75
2022/03/07 07:47:37;;;;;;;19.48;12.35;;;;;;;-146.64;100.00;45535.72;5050237;28;20025;-75
2022/03/07 07:50:03;;;;;;;21.15;11.63;;;;;;;-146.64;100.00;43492.56;5061000;28;20063;-75
2022/03/07 07:52:28;;;;;;;16.48;11.38;;;;;;;-146.64;100.00;42605.53;5050312;28;20460;-75
2022/03/07 07:54:54;;;;;;;22.60;12.45;;;;;;;-146.64;100.00;42236.84;5053509;28;20049;-75
2022/03/07 07:57:19;;;;;;;19.73;11.20;;;;;;;-146.64;100.00;41917.38;5057369;28;20441;-75
2022/03/07 07:59:44;;;;;;;17.17;10.93;;;;;;;-146.64;100.00;41575.38;5053850;28;20021;-77
2022/03/07 08:02:10;;;;;;;17.80;11.25;;;;;;;-146.64;100.00;41438.16;5051685;28;20051;-76
2022/03/07 08:04:35;;;;;;;20.45;11.43;;;;;;;-146.64;100.00;41243.66;5047200;28;20021;-76
2022/03/07 08:07:02;;;;;;;12.18;9.63;;;;;;;-146.64;100.00;41055.28;5048247;28;20025;-76
2022/03/07 08:09:27;;;;;;;14.23;10.82;;;;;;;-146.64;100.00;40873.03;5059822;28;20037;-76
2022/03/07 08:11:52;;;;;;;16.55;11.82;;;;;;;-146.64;100.00;40914.00;5023238;28;20582;-76
2022/03/07 08:14:18;;;;;;;17.05;10.75;;;;;;;-146.64;100.00;40825.94;5036111;28;20020;-76
2022/03/07 08:16:43;;;;;;;21.40;11.30;;;;;;;-146.64;100.00;40676.50;5056116;28;20452;-77
2022/03/07 08:19:08;;;;;;;15.73;10.95;;;;;;;-146.64;100.00;40643.75;5059757;28;20028;-76
2022/03/07 08:21:34;;;;;;;18.65;10.75;;;;;;;-146.64;100.00;40545.47;5028414;28;20136;-75
2022/03/07 08:24:02;;;;;;;18.08;10.88;;;;;;;-146.64;100.00;40434.91;5039708;28;20768;-76
2022/03/07 08:26:28;;;;;;;15.30;10.55;;;;;;;-146.64;100.00;40398.06;5051834;28;20078;-76
2022/03/07 08:28:53;;;;;;;17.90;11.15;;;;;;;-146.64;100.00;40389.88;5044934;28;20032;-76
2022/03/07 08:31:18;;;;;;;19.23;10.77;;;;;;;-146.64;100.00;40187.22;5049829;28;20020;-76
2022/03/07 08:33:44;;;;;;;16.30;9.65;;;;;;;-146.64;100.00;40183.13;5046561;28;20052;-76
2022/03/07 08:36:09;;;;;;;12.48;9.73;;;;;;;-146.64;100.00;40072.59;5027587;28;20029;-76
2022/03/07 08:38:34;;;;;;;15.02;9.60;;;;;;;-146.64;100.00;39941.59;5042900;28;20029;-78
2022/03/07 08:41:00;;;;;;;15.20;9.27;;;;;;;-146.64;100.00;39962.06;5043108;28;20013;-76
2022/03/07 08:43:26;;;;;;;11.98;8.55;;;;;;;-146.64;100.00;39974.34;5054884;28;20112;-76
2022/03/07 08:45:51;;;;;;;12.45;8.32;;;;;;;-146.64;100.00;39781.94;5035574;28;20096;-76
2022/03/07 08:48:16;;;;;;;12.85;8.77;;;;;;;-146.64;100.00;39814.69;5029057;28;20124;-77
2022/03/07 08:50:42;;;;;;;13.07;7.93;;;;;;;-146.64;100.00;39747.13;5065025;28;20153;-77
2022/03/07 08:53:07;;;;;;;11.30;8.48;;;;;;;-146.64;100.00;39751.22;5068990;28;20364;-77
2022/03/07 08:55:33;;;;;;;14.43;8.23;;;;;;;-146.64;100.00;39693.91;5068732;28;20039;-77
2022/03/07 08:57:58;;;;;;;12.52;8.48;;;;;;;-146.64;100.00;39741.00;5025902;28;20415;-77
2022/03/07 09:00:23;;;;;;;14.57;8.68;;;;;;;-146.64;100.00;39685.72;5047312;28;20068;-77
2022/03/07 09:02:49;;;;;;;16.00;8.45;;;;;;;-146.64;100.00;39595.66;5031555;28;20037;-77
2022/03/07 09:05:15;;;;;;;11.10;7.53;;;;;;;-146.64;100.00;39599.75;5063221;28;20406;-77
2022/03/07 09:07:40;;;;;;;12.18;8.57;;;;;;;-146.64;100.00;39610.00;5028935;28;20115;-77
2022/03/07 09:10:06;;;;;;;11.45;7.35;;;;;;;-146.64;100.00;39616.13;5059856;28;20055;-77
2022/03/07 09:12:32;;;;;;;9.98;7.47;;;;;;;-146.64;100.00;39530.16;5052952;28;20537;-77
2022/03/07 09:14:59;;;;;;;12.43;7.78;;;;;;;-146.64;100.00;39597.72;5048739;28;20402;-77
2022/03/07 09:17:25;;;;;;;10.27;7.80;;;;;;;-146.64;100.00;39546.53;5023687;28;20530;-77
2022/03/07 09:19:51;;;;;;;9.63;7.32;;;;;;;-146.64;100.00;39493.34;5039576;28;20021;-76
2022/03/07 09:22:16;;;;;;;10.32;7.57;;;;;;;-146.64;100.00;39448.31;5050762;28;20087;-77
2022/03/07 09:24:41;;;;;;;11.90;7.43;;;;;;;-146.64;100.00;39456.50;5043237;28;20040;-77
2022/03/07 09:27:07;;;;;;;18.85;7.18;;;;;;;-146.64;100.00;39485.16;5028631;28;20037;-78
2022/03/07 09:29:32;;;;;;;10.05;6.90;;;;;;;-146.64;100.00;39444.22;5031724;28;20064;-77
2022/03/07 09:31:57;;;;;;;8.65;7.10;;;;;;;-146.64;100.00;39431.94;5048515;28;20057;-78
2022/03/07 09:34:23;;;;;;;11.05;6.60;;;;;;;-146.64;98.16;39409.41;5031946;28;20090;-77
2022/03/07 09:36:48;;;;;;;8.93;6.60;;;;;;;-146.64;96.19;39352.13;5048967;28;20033;-77
2022/03/07 09:39:14;;;;;;;11.43;6.88;;;;;;;-146.64;96.74;39352.13;5048028;28;20484;-77
2022/03/07 09:41:41;;;;;;;16.33;7.32;;;;;;;-146.64;95.85;39364.41;5048476;28;20013;-77
2022/03/07 09:44:07;;;;;;;11.63;6.95;;;;;;;-146.64;94.72;39341.88;5059861;28;20523;-77
2022/03/07 09:46:32;;;;;;;10.82;6.55;;;;;;;-146.64;90.70;39325.50;5060280;28;20112;-78
2022/03/07 09:48:57;;;;;;;10.70;6.55;;;;;;;-146.64;87.90;39370.53;5038401;28;20064;-78
2022/03/07 09:51:23;;;;;;;12.65;6.65;;;;;;;-146.64;87.36;39280.47;5067301;28;20144;-78
2022/03/07 09:53:48;;;;;;;10.60;6.28;;;;;;;-146.64;87.82;39290.72;5053026;28;20037;-77
2022/03/07 09:56:14;;;;;;;9.40;5.75;;;;;;;-146.64;85.87;39260.00;5042095;28;20043;-77
2022/03/07 09:58:39;;;;;;;12.90;6.00;;;;;;;-146.64;84.51;39235.47;5060487;28;20039;-77
2022/03/07 10:01:10;;;;;;;10.25;6.90;;;;;;;-146.64;85.12;39219.09;5071399;28;20519;-77
2022/03/07 10:03:36;;;;;;;8.50;6.15;;;;;;;-146.64;81.57;39210.91;5052169;28;20472;-77
2022/03/07 10:06:01;;;;;;;8.77;6.65;;;;;;;-146.64;84.69;39239.56;5053240;28;20056;-77
2022/03/07 10:08:28;;;;;;;7.88;5.97;;;;;;;-146.64;82.22;39204.75;5052783;28;20036;-77
2022/03/07 10:10:55;;;;;;;11.10;6.85;;;;;;;-146.64;78.24;39169.97;5056755;28;20032;-77
2022/03/07 10:13:22;;;;;;;13.93;7.15;;;;;;;-146.64;81.73;39184.28;5064072;28;20767;-77
2022/03/07 10:15:57;;;;;;;;;;;;;;;-146.64;80.37;39163.81;5056022;28;20056;-77
2022/03/07 10:18:23;;;;;;;10.90;6.18;;;;;;;-146.64;81.82;39202.72;5054207;28;19948;-77
2022/03/07 10:20:50;;;;;;;7.30;5.75;;;;;;;-146.64;76.72;39186.34;5057482;28;20068;-77
2022/03/07 10:23:15;;;;;;;7.30;5.50;;;;;;;-146.64;74.36;39139.28;5050024;28;20047;-77
2022/03/07 10:25:43;;;;;;;10.32;5.45;;;;;;;-146.64;69.99;39104.47;5062616;28;20029;-77
2022/03/07 10:28:09;;;;;;;6.68;5.15;;;;;;;-146.64;73.13;39102.44;5050044;28;20170;-77
2022/03/07 10:30:35;;;;;;;6.07;4.85;;;;;;;-146.64;73.19;39088.09;5032466;28;20082;-77
2022/03/07 10:33:06;;;;;;;8.38;5.40;;;;;;;-146.64;72.60;39071.75;5043011;28;20029;-76
2022/03/07 10:35:33;;;;;;;13.57;6.25;;;;;;;-146.64;71.68;39071.75;5047908;28;20033;-76
2022/03/07 10:38:00;;;;;;;9.85;5.70;;;;;;;-146.64;70.21;39067.66;5059957;28;20032;-76
2022/03/07 10:40:27;;;;;;;7.47;5.05;;;;;;;-146.64;69.57;39075.84;5016962;28;20091;-76
2022/03/07 10:42:53;;;;;;;8.63;5.13;;;;;;;-146.64;68.51;39049.22;5035089;28;20094;-76
2022/03/07 10:45:19;;;;;;;8.23;4.93;;;;;;;-146.64;66.42;39071.75;5066583;28;20032;-76
2022/03/07 10:47:53;;;;;;;6.13;4.72;;;;;;;-146.64;62.63;39055.38;5044267;28;20384;-77
2022/03/07 10:50:23;;;;;;;7.32;4.63;;;;;;;-146.64;64.89;39039.00;5048150;28;20029;-76
2022/03/07 10:52:51;;;;;;;9.10;4.88;;;;;;;-146.64;66.03;39055.38;5032058;28;20406;-76
2022/03/07 10:55:26;;;;;;;6.55;5.03;;;;;;;-146.64;64.33;39059.47;5050081;28;20013;-76